sensor_id;sensor_type;location;lat;lon;timestamp;P1;durP1;ratioP1;P2;durP2;ratioP2
63157;SDS011;49381;49.338;8.794;2022-12-07T00:00:45;8.73;;;5.10;;
63157;SDS011;49381;49.338;8.794;2022-12-07T00:02:46;11.18;;;6.25;;
63157;SDS011;49381;49.338;8.794;2022-12-07T00:04:49;11.70;;;6.07;;
63157;SDS011;49381;49.338;8.794;2022-12-07T00:06:50;8.00;;;4.97;;
63157;SDS011;49381;49.338;8.794;2022-12-07T00:08:52;10.05;;;6.03;;
63157;SDS011;49381;49.338;8.794;2022-12-07T00:10:52;9.88;;;6.15;;
63157;SDS011;49381;49.338;8.794;2022-12-07T00:12:52;12.57;;;5.72;;
63157;SDS011;49381;49.338;8.794;2022-12-07T00:14:53;13.63;;;5.68;;
63157;SDS011;49381;49.338;8.794;2022-12-07T00:16:53;9.45;;;5.97;;
63157;SDS011;49381;49.338;8.794;2022-12-07T00:18:54;11.57;;;5.80;;
63157;SDS011;49381;49.338;8.794;2022-12-07T00:20:59;11.85;;;6.50;;
63157;SDS011;49381;49.338;8.794;2022-12-07T00:23:00;12.25;;;6.18;;
63157;SDS011;49381;49.338;8.794;2022-12-07T00:25:00;12.10;;;6.25;;
63157;SDS011;49381;49.338;8.794;2022-12-07T00:27:01;10.45;;;6.18;;
63157;SDS011;49381;49.338;8.794;2022-12-07T00:29:02;13.05;;;7.70;;
63157;SDS011;49381;49.338;8.794;2022-12-07T00:31:05;14.13;;;7.22;;
63157;SDS011;49381;49.338;8.794;2022-12-07T00:33:06;13.50;;;6.70;;
63157;SDS011;49381;49.338;8.794;2022-12-07T00:35:07;14.88;;;7.32;;
63157;SDS011;49381;49.338;8.794;2022-12-07T00:37:09;11.85;;;6.53;;
63157;SDS011;49381;49.338;8.794;2022-12-07T00:39:09;9.60;;;5.82;;
63157;SDS011;49381;49.338;8.794;2022-12-07T00:41:10;13.88;;;6.72;;
63157;SDS011;49381;49.338;8.794;2022-12-07T00:43:12;12.18;;;6.97;;
63157;SDS011;49381;49.338;8.794;2022-12-07T00:45:13;15.30;;;6.63;;
63157;SDS011;49381;49.338;8.794;2022-12-07T00:47:13;13.38;;;7.07;;
63157;SDS011;49381;49.338;8.794;2022-12-07T00:49:13;17.27;;;7.70;;
63157;SDS011;49381;49.338;8.794;2022-12-07T00:51:15;14.10;;;7.60;;
63157;SDS011;49381;49.338;8.794;2022-12-07T00:53:18;14.02;;;7.53;;
63157;SDS011;49381;49.338;8.794;2022-12-07T00:55:18;12.40;;;6.93;;
63157;SDS011;49381;49.338;8.794;2022-12-07T00:57:19;14.73;;;7.13;;
63157;SDS011;49381;49.338;8.794;2022-12-07T00:59:19;13.85;;;7.63;;
63157;SDS011;49381;49.338;8.794;2022-12-07T01:01:20;16.65;;;8.60;;
63157;SDS011;49381;49.338;8.794;2022-12-07T01:03:20;13.88;;;7.95;;
63157;SDS011;49381;49.338;8.794;2022-12-07T01:05:20;12.05;;;7.40;;
63157;SDS011;49381;49.338;8.794;2022-12-07T01:07:21;16.67;;;8.68;;
63157;SDS011;49381;49.338;8.794;2022-12-07T01:09:22;18.50;;;7.93;;
63157;SDS011;49381;49.338;8.794;2022-12-07T01:11:23;16.85;;;7.50;;
63157;SDS011;49381;49.338;8.794;2022-12-07T01:13:25;16.33;;;7.28;;
63157;SDS011;49381;49.338;8.794;2022-12-07T01:15:25;12.25;;;6.70;;
63157;SDS011;49381;49.338;8.794;2022-12-07T01:17:26;15.30;;;7.97;;
63157;SDS011;49381;49.338;8.794;2022-12-07T01:19:26;16.65;;;7.95;;
63157;SDS011;49381;49.338;8.794;2022-12-07T01:21:27;16.67;;;7.68;;
63157;SDS011;49381;49.338;8.794;2022-12-07T01:23:29;13.02;;;7.15;;
63157;SDS011;49381;49.338;8.794;2022-12-07T01:25:31;14.32;;;7.47;;
63157;SDS011;49381;49.338;8.794;2022-12-07T01:27:32;10.77;;;6.50;;
63157;SDS011;49381;49.338;8.794;2022-12-07T01:29:32;13.82;;;7.13;;
63157;SDS011;49381;49.338;8.794;2022-12-07T01:31:33;13.10;;;7.03;;
63157;SDS011;49381;49.338;8.794;2022-12-07T01:33:34;12.35;;;5.90;;
63157;SDS011;49381;49.338;8.794;2022-12-07T01:35:35;10.27;;;5.72;;
63157;SDS011;49381;49.338;8.794;2022-12-07T01:37:36;10.43;;;5.65;;
63157;SDS011;49381;49.338;8.794;2022-12-07T01:39:37;14.57;;;7.82;;
63157;SDS011;49381;49.338;8.794;2022-12-07T01:41:39;15.43;;;7.57;;
63157;SDS011;49381;49.338;8.794;2022-12-07T01:44:06;14.95;;;7.47;;
63157;SDS011;49381;49.338;8.794;2022-12-07T01:46:13;15.73;;;7.82;;
63157;SDS011;49381;49.338;8.794;2022-12-07T01:48:14;12.63;;;6.80;;
63157;SDS011;49381;49.338;8.794;2022-12-07T01:50:17;12.75;;;7.07;;
63157;SDS011;49381;49.338;8.794;2022-12-07T01:52:19;15.15;;;7.70;;
63157;SDS011;49381;49.338;8.794;2022-12-07T01:54:22;15.98;;;8.02;;
63157;SDS011;49381;49.338;8.794;2022-12-07T01:56:23;13.90;;;7.70;;
63157;SDS011;49381;49.338;8.794;2022-12-07T01:58:28;13.35;;;7.03;;
63157;SDS011;49381;49.338;8.794;2022-12-07T02:00:29;11.93;;;6.88;;
63157;SDS011;49381;49.338;8.794;2022-12-07T02:02:30;12.23;;;6.50;;
63157;SDS011;49381;49.338;8.794;2022-12-07T02:04:32;13.10;;;6.25;;
63157;SDS011;49381;49.338;8.794;2022-12-07T02:06:33;13.32;;;6.50;;
63157;SDS011;49381;49.338;8.794;2022-12-07T02:08:35;11.75;;;6.00;;
63157;SDS011;49381;49.338;8.794;2022-12-07T02:10:35;13.18;;;6.50;;
63157;SDS011;49381;49.338;8.794;2022-12-07T02:12:36;13.30;;;6.80;;
63157;SDS011;49381;49.338;8.794;2022-12-07T02:14:38;11.50;;;6.88;;
63157;SDS011;49381;49.338;8.794;2022-12-07T02:16:41;12.30;;;7.00;;
63157;SDS011;49381;49.338;8.794;2022-12-07T02:18:56;13.23;;;6.43;;
63157;SDS011;49381;49.338;8.794;2022-12-07T02:21:10;10.35;;;5.75;;
63157;SDS011;49381;49.338;8.794;2022-12-07T02:23:30;13.88;;;6.72;;
63157;SDS011;49381;49.338;8.794;2022-12-07T02:25:52;12.63;;;5.60;;
63157;SDS011;49381;49.338;8.794;2022-12-07T02:28:03;12.32;;;6.47;;
63157;SDS011;49381;49.338;8.794;2022-12-07T02:30:08;10.85;;;5.85;;
63157;SDS011;49381;49.338;8.794;2022-12-07T02:32:11;12.02;;;6.13;;
63157;SDS011;49381;49.338;8.794;2022-12-07T02:34:18;12.80;;;5.93;;
63157;SDS011;49381;49.338;8.794;2022-12-07T02:36:22;11.57;;;6.68;;
63157;SDS011;49381;49.338;8.794;2022-12-07T02:38:28;12.55;;;6.30;;
63157;SDS011;49381;49.338;8.794;2022-12-07T02:40:35;11.05;;;6.03;;
63157;SDS011;49381;49.338;8.794;2022-12-07T02:42:40;13.60;;;6.55;;
63157;SDS011;49381;49.338;8.794;2022-12-07T02:44:45;9.20;;;6.25;;
63157;SDS011;49381;49.338;8.794;2022-12-07T02:46:48;12.98;;;6.40;;
63157;SDS011;49381;49.338;8.794;2022-12-07T02:48:52;12.52;;;6.38;;
63157;SDS011;49381;49.338;8.794;2022-12-07T02:50:54;12.90;;;5.82;;
63157;SDS011;49381;49.338;8.794;2022-12-07T02:52:55;12.63;;;6.82;;
63157;SDS011;49381;49.338;8.794;2022-12-07T02:54:55;11.90;;;6.18;;
63157;SDS011;49381;49.338;8.794;2022-12-07T02:56:56;11.88;;;6.15;;
63157;SDS011;49381;49.338;8.794;2022-12-07T02:59:04;13.10;;;7.20;;
63157;SDS011;49381;49.338;8.794;2022-12-07T03:01:15;12.23;;;6.78;;
63157;SDS011;49381;49.338;8.794;2022-12-07T03:03:27;13.30;;;6.95;;
63157;SDS011;49381;49.338;8.794;2022-12-07T03:05:39;12.48;;;7.72;;
63157;SDS011;49381;49.338;8.794;2022-12-07T03:07:59;13.50;;;7.22;;
63157;SDS011;49381;49.338;8.794;2022-12-07T03:10:05;13.18;;;7.07;;
63157;SDS011;49381;49.338;8.794;2022-12-07T03:12:15;13.48;;;7.28;;
63157;SDS011;49381;49.338;8.794;2022-12-07T03:14:19;13.18;;;6.82;;
63157;SDS011;49381;49.338;8.794;2022-12-07T03:16:25;11.75;;;6.95;;
63157;SDS011;49381;49.338;8.794;2022-12-07T03:18:29;11.55;;;6.80;;
63157;SDS011;49381;49.338;8.794;2022-12-07T03:20:32;12.95;;;7.30;;
63157;SDS011;49381;49.338;8.794;2022-12-07T03:22:34;12.35;;;6.80;;
63157;SDS011;49381;49.338;8.794;2022-12-07T03:24:39;12.15;;;6.28;;
63157;SDS011;49381;49.338;8.794;2022-12-07T03:26:42;11.75;;;6.38;;
63157;SDS011;49381;49.338;8.794;2022-12-07T03:28:47;13.07;;;6.13;;
63157;SDS011;49381;49.338;8.794;2022-12-07T03:30:53;13.10;;;6.95;;
63157;SDS011;49381;49.338;8.794;2022-12-07T03:32:58;10.73;;;6.20;;
63157;SDS011;49381;49.338;8.794;2022-12-07T03:35:05;12.88;;;6.88;;
63157;SDS011;49381;49.338;8.794;2022-12-07T03:37:10;10.68;;;6.38;;
63157;SDS011;49381;49.338;8.794;2022-12-07T03:39:17;14.35;;;7.45;;
63157;SDS011;49381;49.338;8.794;2022-12-07T03:41:23;11.82;;;6.95;;
63157;SDS011;49381;49.338;8.794;2022-12-07T03:43:26;11.82;;;6.95;;
63157;SDS011;49381;49.338;8.794;2022-12-07T03:45:30;11.55;;;6.78;;
63157;SDS011;49381;49.338;8.794;2022-12-07T03:47:37;13.50;;;6.47;;
63157;SDS011;49381;49.338;8.794;2022-12-07T03:49:48;13.40;;;8.30;;
63157;SDS011;49381;49.338;8.794;2022-12-07T03:51:55;17.65;;;9.80;;
63157;SDS011;49381;49.338;8.794;2022-12-07T03:54:02;16.50;;;8.32;;
63157;SDS011;49381;49.338;8.794;2022-12-07T03:56:09;13.73;;;7.82;;
63157;SDS011;49381;49.338;8.794;2022-12-07T03:58:11;12.18;;;7.70;;
63157;SDS011;49381;49.338;8.794;2022-12-07T04:00:15;11.93;;;7.35;;
63157;SDS011;49381;49.338;8.794;2022-12-07T04:02:16;11.05;;;7.40;;
63157;SDS011;49381;49.338;8.794;2022-12-07T04:04:17;15.70;;;9.88;;
63157;SDS011;49381;49.338;8.794;2022-12-07T04:06:17;14.05;;;8.68;;
63157;SDS011;49381;49.338;8.794;2022-12-07T04:08:19;10.07;;;6.22;;
63157;SDS011;49381;49.338;8.794;2022-12-07T04:10:19;12.40;;;7.30;;
63157;SDS011;49381;49.338;8.794;2022-12-07T04:12:19;12.38;;;7.18;;
63157;SDS011;49381;49.338;8.794;2022-12-07T04:14:20;14.85;;;7.18;;
63157;SDS011;49381;49.338;8.794;2022-12-07T04:16:20;12.98;;;7.78;;
63157;SDS011;49381;49.338;8.794;2022-12-07T04:18:20;12.77;;;6.53;;
63157;SDS011;49381;49.338;8.794;2022-12-07T04:20:21;12.70;;;7.15;;
63157;SDS011;49381;49.338;8.794;2022-12-07T04:22:21;12.13;;;6.95;;
63157;SDS011;49381;49.338;8.794;2022-12-07T04:24:23;12.43;;;6.68;;
63157;SDS011;49381;49.338;8.794;2022-12-07T04:26:24;17.33;;;7.20;;
63157;SDS011;49381;49.338;8.794;2022-12-07T04:28:24;13.20;;;6.65;;
63157;SDS011;49381;49.338;8.794;2022-12-07T04:30:25;11.75;;;6.57;;
63157;SDS011;49381;49.338;8.794;2022-12-07T04:32:25;13.32;;;7.38;;
63157;SDS011;49381;49.338;8.794;2022-12-07T04:34:26;13.25;;;7.63;;
63157;SDS011;49381;49.338;8.794;2022-12-07T04:36:26;12.45;;;7.30;;
63157;SDS011;49381;49.338;8.794;2022-12-07T04:38:26;12.40;;;6.70;;
63157;SDS011;49381;49.338;8.794;2022-12-07T04:40:28;12.82;;;7.10;;
63157;SDS011;49381;49.338;8.794;2022-12-07T04:42:28;13.57;;;7.47;;
63157;SDS011;49381;49.338;8.794;2022-12-07T04:44:29;15.52;;;7.82;;
63157;SDS011;49381;49.338;8.794;2022-12-07T04:46:30;13.85;;;7.47;;
63157;SDS011;49381;49.338;8.794;2022-12-07T04:48:31;11.80;;;6.72;;
63157;SDS011;49381;49.338;8.794;2022-12-07T04:50:31;12.10;;;6.68;;
63157;SDS011;49381;49.338;8.794;2022-12-07T04:52:32;12.20;;;7.15;;
63157;SDS011;49381;49.338;8.794;2022-12-07T04:54:32;11.38;;;6.70;;
63157;SDS011;49381;49.338;8.794;2022-12-07T04:56:34;13.52;;;7.45;;
63157;SDS011;49381;49.338;8.794;2022-12-07T04:58:34;13.15;;;7.45;;
63157;SDS011;49381;49.338;8.794;2022-12-07T05:00:35;12.30;;;6.72;;
63157;SDS011;49381;49.338;8.794;2022-12-07T05:02:35;12.60;;;7.10;;
63157;SDS011;49381;49.338;8.794;2022-12-07T05:04:35;13.10;;;7.72;;
63157;SDS011;49381;49.338;8.794;2022-12-07T05:06:36;17.77;;;8.05;;
63157;SDS011;49381;49.338;8.794;2022-12-07T05:08:36;13.82;;;8.57;;
63157;SDS011;49381;49.338;8.794;2022-12-07T05:10:37;13.18;;;8.38;;
63157;SDS011;49381;49.338;8.794;2022-12-07T05:12:38;16.77;;;8.20;;
63157;SDS011;49381;49.338;8.794;2022-12-07T05:14:39;12.43;;;7.22;;
63157;SDS011;49381;49.338;8.794;2022-12-07T05:16:39;14.25;;;8.35;;
63157;SDS011;49381;49.338;8.794;2022-12-07T05:18:40;19.65;;;9.10;;
63157;SDS011;49381;49.338;8.794;2022-12-07T05:20:41;12.75;;;7.45;;
63157;SDS011;49381;49.338;8.794;2022-12-07T05:22:41;12.52;;;7.28;;
63157;SDS011;49381;49.338;8.794;2022-12-07T05:24:42;15.50;;;8.73;;
63157;SDS011;49381;49.338;8.794;2022-12-07T05:26:42;13.55;;;7.78;;
63157;SDS011;49381;49.338;8.794;2022-12-07T05:28:44;12.70;;;7.60;;
63157;SDS011;49381;49.338;8.794;2022-12-07T05:30:44;18.17;;;8.45;;
63157;SDS011;49381;49.338;8.794;2022-12-07T05:32:45;16.58;;;7.60;;
63157;SDS011;49381;49.338;8.794;2022-12-07T05:34:45;14.95;;;7.70;;
63157;SDS011;49381;49.338;8.794;2022-12-07T05:36:46;15.95;;;7.95;;
63157;SDS011;49381;49.338;8.794;2022-12-07T05:38:46;13.20;;;7.55;;
63157;SDS011;49381;49.338;8.794;2022-12-07T05:40:46;14.13;;;7.63;;
63157;SDS011;49381;49.338;8.794;2022-12-07T05:42:47;13.68;;;6.57;;
63157;SDS011;49381;49.338;8.794;2022-12-07T05:44:48;16.35;;;8.63;;
63157;SDS011;49381;49.338;8.794;2022-12-07T05:46:49;16.13;;;7.40;;
63157;SDS011;49381;49.338;8.794;2022-12-07T05:48:49;12.68;;;7.47;;
63157;SDS011;49381;49.338;8.794;2022-12-07T05:50:49;13.80;;;7.82;;
63157;SDS011;49381;49.338;8.794;2022-12-07T05:52:50;13.10;;;7.82;;
63157;SDS011;49381;49.338;8.794;2022-12-07T05:54:50;14.13;;;8.10;;
63157;SDS011;49381;49.338;8.794;2022-12-07T05:56:51;14.80;;;8.60;;
63157;SDS011;49381;49.338;8.794;2022-12-07T05:58:51;14.27;;;8.60;;
63157;SDS011;49381;49.338;8.794;2022-12-07T06:00:55;16.13;;;8.73;;
63157;SDS011;49381;49.338;8.794;2022-12-07T06:02:55;15.07;;;7.82;;
63157;SDS011;49381;49.338;8.794;2022-12-07T06:04:55;16.58;;;8.50;;
63157;SDS011;49381;49.338;8.794;2022-12-07T06:06:56;16.52;;;8.48;;
63157;SDS011;49381;49.338;8.794;2022-12-07T06:08:56;14.68;;;7.82;;
63157;SDS011;49381;49.338;8.794;2022-12-07T06:10:56;21.00;;;10.80;;
63157;SDS011;49381;49.338;8.794;2022-12-07T06:12:56;17.50;;;9.15;;
63157;SDS011;49381;49.338;8.794;2022-12-07T06:14:57;15.45;;;8.02;;
63157;SDS011;49381;49.338;8.794;2022-12-07T06:16:59;14.23;;;7.65;;
63157;SDS011;49381;49.338;8.794;2022-12-07T06:19:00;14.63;;;7.93;;
63157;SDS011;49381;49.338;8.794;2022-12-07T06:21:00;16.17;;;8.55;;
63157;SDS011;49381;49.338;8.794;2022-12-07T06:23:00;14.82;;;8.60;;
63157;SDS011;49381;49.338;8.794;2022-12-07T06:25:00;14.68;;;8.52;;
63157;SDS011;49381;49.338;8.794;2022-12-07T06:27:01;14.55;;;8.10;;
63157;SDS011;49381;49.338;8.794;2022-12-07T06:29:01;16.25;;;9.38;;
63157;SDS011;49381;49.338;8.794;2022-12-07T06:31:01;17.45;;;9.15;;
63157;SDS011;49381;49.338;8.794;2022-12-07T06:33:03;20.83;;;11.40;;
63157;SDS011;49381;49.338;8.794;2022-12-07T06:35:04;20.45;;;13.38;;
63157;SDS011;49381;49.338;8.794;2022-12-07T06:37:05;19.10;;;11.57;;
63157;SDS011;49381;49.338;8.794;2022-12-07T06:39:05;17.88;;;10.23;;
63157;SDS011;49381;49.338;8.794;2022-12-07T06:41:06;32.78;;;17.23;;
63157;SDS011;49381;49.338;8.794;2022-12-07T06:43:07;27.00;;;17.75;;
63157;SDS011;49381;49.338;8.794;2022-12-07T06:45:07;14.98;;;8.70;;
63157;SDS011;49381;49.338;8.794;2022-12-07T06:47:08;14.20;;;9.02;;
63157;SDS011;49381;49.338;8.794;2022-12-07T06:49:10;13.90;;;8.88;;
63157;SDS011;49381;49.338;8.794;2022-12-07T06:51:10;13.80;;;7.60;;
63157;SDS011;49381;49.338;8.794;2022-12-07T06:53:11;17.45;;;8.00;;
63157;SDS011;49381;49.338;8.794;2022-12-07T06:55:11;14.48;;;8.60;;
63157;SDS011;49381;49.338;8.794;2022-12-07T06:57:11;20.33;;;8.98;;
63157;SDS011;49381;49.338;8.794;2022-12-07T06:59:12;18.90;;;9.48;;
63157;SDS011;49381;49.338;8.794;2022-12-07T07:01:13;20.02;;;10.73;;
63157;SDS011;49381;49.338;8.794;2022-12-07T07:03:15;19.15;;;9.80;;
63157;SDS011;49381;49.338;8.794;2022-12-07T07:05:16;17.98;;;9.30;;
63157;SDS011;49381;49.338;8.794;2022-12-07T07:07:17;19.00;;;9.68;;
63157;SDS011;49381;49.338;8.794;2022-12-07T07:09:17;15.27;;;8.55;;
63157;SDS011;49381;49.338;8.794;2022-12-07T07:11:17;25.40;;;14.43;;
63157;SDS011;49381;49.338;8.794;2022-12-07T07:13:18;25.42;;;15.18;;
63157;SDS011;49381;49.338;8.794;2022-12-07T07:15:18;34.25;;;20.10;;
63157;SDS011;49381;49.338;8.794;2022-12-07T07:17:19;23.95;;;11.40;;
63157;SDS011;49381;49.338;8.794;2022-12-07T07:19:19;19.67;;;11.32;;
63157;SDS011;49381;49.338;8.794;2022-12-07T07:21:21;17.55;;;9.02;;
63157;SDS011;49381;49.338;8.794;2022-12-07T07:23:21;18.20;;;10.18;;
63157;SDS011;49381;49.338;8.794;2022-12-07T07:25:21;17.60;;;9.40;;
63157;SDS011;49381;49.338;8.794;2022-12-07T07:27:22;20.70;;;10.13;;
63157;SDS011;49381;49.338;8.794;2022-12-07T07:29:22;15.95;;;9.48;;
63157;SDS011;49381;49.338;8.794;2022-12-07T07:31:22;15.77;;;9.30;;
63157;SDS011;49381;49.338;8.794;2022-12-07T07:33:23;18.10;;;9.95;;
63157;SDS011;49381;49.338;8.794;2022-12-07T07:35:23;15.38;;;9.05;;
63157;SDS011;49381;49.338;8.794;2022-12-07T07:37:25;15.73;;;8.80;;
63157;SDS011;49381;49.338;8.794;2022-12-07T07:39:26;17.10;;;9.77;;
63157;SDS011;49381;49.338;8.794;2022-12-07T07:41:26;16.38;;;10.20;;
63157;SDS011;49381;49.338;8.794;2022-12-07T07:43:26;18.05;;;8.65;;
63157;SDS011;49381;49.338;8.794;2022-12-07T07:45:27;19.83;;;10.30;;
63157;SDS011;49381;49.338;8.794;2022-12-07T07:47:27;23.27;;;12.23;;
63157;SDS011;49381;49.338;8.794;2022-12-07T07:49:27;32.03;;;15.27;;
63157;SDS011;49381;49.338;8.794;2022-12-07T07:51:28;21.73;;;11.13;;
63157;SDS011;49381;49.338;8.794;2022-12-07T07:53:29;22.25;;;11.40;;
63157;SDS011;49381;49.338;8.794;2022-12-07T07:55:30;19.42;;;9.82;;
63157;SDS011;49381;49.338;8.794;2022-12-07T07:57:30;22.58;;;12.75;;
63157;SDS011;49381;49.338;8.794;2022-12-07T07:59:30;21.10;;;11.20;;
63157;SDS011;49381;49.338;8.794;2022-12-07T08:01:31;20.17;;;9.77;;
63157;SDS011;49381;49.338;8.794;2022-12-07T08:03:31;17.45;;;8.70;;
63157;SDS011;49381;49.338;8.794;2022-12-07T08:05:31;17.08;;;9.18;;
63157;SDS011;49381;49.338;8.794;2022-12-07T08:07:32;18.30;;;9.40;;
63157;SDS011;49381;49.338;8.794;2022-12-07T08:09:33;19.80;;;9.60;;
63157;SDS011;49381;49.338;8.794;2022-12-07T08:11:34;20.38;;;10.50;;
63157;SDS011;49381;49.338;8.794;2022-12-07T08:13:34;17.00;;;9.82;;
63157;SDS011;49381;49.338;8.794;2022-12-07T08:15:35;19.60;;;9.85;;
63157;SDS011;49381;49.338;8.794;2022-12-07T08:17:36;17.15;;;10.25;;
63157;SDS011;49381;49.338;8.794;2022-12-07T08:19:37;19.50;;;9.55;;
63157;SDS011;49381;49.338;8.794;2022-12-07T08:21:37;22.52;;;11.15;;
63157;SDS011;49381;49.338;8.794;2022-12-07T08:23:37;21.92;;;11.30;;
63157;SDS011;49381;49.338;8.794;2022-12-07T08:25:39;20.30;;;10.98;;
63157;SDS011;49381;49.338;8.794;2022-12-07T08:27:40;20.23;;;10.25;;
63157;SDS011;49381;49.338;8.794;2022-12-07T08:29:40;33.70;;;18.15;;
63157;SDS011;49381;49.338;8.794;2022-12-07T08:31:40;22.58;;;12.63;;
63157;SDS011;49381;49.338;8.794;2022-12-07T08:33:41;18.83;;;10.50;;
63157;SDS011;49381;49.338;8.794;2022-12-07T08:35:41;17.52;;;9.77;;
63157;SDS011;49381;49.338;8.794;2022-12-07T08:37:42;18.10;;;9.60;;
63157;SDS011;49381;49.338;8.794;2022-12-07T08:39:42;20.17;;;9.80;;
63157;SDS011;49381;49.338;8.794;2022-12-07T08:41:44;18.73;;;9.73;;
63157;SDS011;49381;49.338;8.794;2022-12-07T08:43:44;23.58;;;9.80;;
63157;SDS011;49381;49.338;8.794;2022-12-07T08:45:45;17.92;;;9.73;;
63157;SDS011;49381;49.338;8.794;2022-12-07T08:47:48;20.67;;;9.77;;
63157;SDS011;49381;49.338;8.794;2022-12-07T08:49:52;21.38;;;9.27;;
63157;SDS011;49381;49.338;8.794;2022-12-07T08:51:53;16.42;;;9.07;;
63157;SDS011;49381;49.338;8.794;2022-12-07T08:53:55;21.38;;;10.30;;
63157;SDS011;49381;49.338;8.794;2022-12-07T08:55:58;20.15;;;9.18;;
63157;SDS011;49381;49.338;8.794;2022-12-07T08:58:00;16.95;;;9.38;;
63157;SDS011;49381;49.338;8.794;2022-12-07T09:00:02;17.67;;;8.88;;
63157;SDS011;49381;49.338;8.794;2022-12-07T09:02:03;17.75;;;10.40;;
63157;SDS011;49381;49.338;8.794;2022-12-07T09:04:03;20.73;;;9.75;;
63157;SDS011;49381;49.338;8.794;2022-12-07T09:06:04;19.42;;;8.88;;
63157;SDS011;49381;49.338;8.794;2022-12-07T09:08:05;20.27;;;9.63;;
63157;SDS011;49381;49.338;8.794;2022-12-07T09:10:06;20.15;;;10.40;;
63157;SDS011;49381;49.338;8.794;2022-12-07T09:12:07;20.92;;;9.77;;
63157;SDS011;49381;49.338;8.794;2022-12-07T09:14:09;19.25;;;10.32;;
63157;SDS011;49381;49.338;8.794;2022-12-07T09:16:09;18.70;;;10.05;;
63157;SDS011;49381;49.338;8.794;2022-12-07T09:18:10;15.93;;;8.40;;
63157;SDS011;49381;49.338;8.794;2022-12-07T09:20:10;20.02;;;11.10;;
63157;SDS011;49381;49.338;8.794;2022-12-07T09:22:11;17.77;;;9.55;;
63157;SDS011;49381;49.338;8.794;2022-12-07T09:24:12;18.92;;;9.48;;
63157;SDS011;49381;49.338;8.794;2022-12-07T09:26:12;18.60;;;9.80;;
63157;SDS011;49381;49.338;8.794;2022-12-07T09:28:12;21.55;;;11.18;;
63157;SDS011;49381;49.338;8.794;2022-12-07T09:30:14;17.58;;;9.90;;
63157;SDS011;49381;49.338;8.794;2022-12-07T09:32:15;19.58;;;9.75;;
63157;SDS011;49381;49.338;8.794;2022-12-07T09:34:15;19.30;;;9.50;;
63157;SDS011;49381;49.338;8.794;2022-12-07T09:36:15;17.52;;;10.25;;
63157;SDS011;49381;49.338;8.794;2022-12-07T09:38:16;18.23;;;10.45;;
63157;SDS011;49381;49.338;8.794;2022-12-07T09:40:17;20.35;;;10.52;;
63157;SDS011;49381;49.338;8.794;2022-12-07T09:42:25;23.73;;;11.40;;
63157;SDS011;49381;49.338;8.794;2022-12-07T09:44:28;18.95;;;9.60;;
63157;SDS011;49381;49.338;8.794;2022-12-07T09:46:30;18.63;;;9.35;;
63157;SDS011;49381;49.338;8.794;2022-12-07T09:48:36;17.55;;;8.98;;
63157;SDS011;49381;49.338;8.794;2022-12-07T09:50:37;23.38;;;10.93;;
63157;SDS011;49381;49.338;8.794;2022-12-07T09:52:39;18.88;;;9.50;;
63157;SDS011;49381;49.338;8.794;2022-12-07T09:54:43;18.33;;;9.68;;
63157;SDS011;49381;49.338;8.794;2022-12-07T09:56:47;19.27;;;11.07;;
63157;SDS011;49381;49.338;8.794;2022-12-07T09:58:47;18.73;;;9.40;;
63157;SDS011;49381;49.338;8.794;2022-12-07T10:00:48;20.50;;;9.50;;
63157;SDS011;49381;49.338;8.794;2022-12-07T10:02:52;17.40;;;9.07;;
63157;SDS011;49381;49.338;8.794;2022-12-07T10:04:55;16.25;;;8.93;;
63157;SDS011;49381;49.338;8.794;2022-12-07T10:06:57;18.75;;;10.18;;
63157;SDS011;49381;49.338;8.794;2022-12-07T10:08:58;17.45;;;9.10;;
63157;SDS011;49381;49.338;8.794;2022-12-07T10:10:58;18.77;;;9.77;;
63157;SDS011;49381;49.338;8.794;2022-12-07T10:13:03;20.55;;;9.50;;
63157;SDS011;49381;49.338;8.794;2022-12-07T10:15:04;17.83;;;10.13;;
63157;SDS011;49381;49.338;8.794;2022-12-07T10:19:30;19.75;;;9.98;;
63157;SDS011;49381;49.338;8.794;2022-12-07T10:21:32;23.63;;;12.05;;
63157;SDS011;49381;49.338;8.794;2022-12-07T10:23:33;18.67;;;10.02;;
63157;SDS011;49381;49.338;8.794;2022-12-07T10:25:35;18.15;;;10.00;;
63157;SDS011;49381;49.338;8.794;2022-12-07T10:27:36;20.42;;;9.07;;
63157;SDS011;49381;49.338;8.794;2022-12-07T10:29:37;17.17;;;8.75;;
63157;SDS011;49381;49.338;8.794;2022-12-07T10:31:38;19.38;;;9.55;;
63157;SDS011;49381;49.338;8.794;2022-12-07T10:33:48;18.52;;;10.10;;
63157;SDS011;49381;49.338;8.794;2022-12-07T10:35:51;17.73;;;9.40;;
63157;SDS011;49381;49.338;8.794;2022-12-07T10:37:51;16.23;;;8.98;;
63157;SDS011;49381;49.338;8.794;2022-12-07T10:39:53;19.67;;;10.40;;
63157;SDS011;49381;49.338;8.794;2022-12-07T10:41:55;19.17;;;9.35;;
63157;SDS011;49381;49.338;8.794;2022-12-07T10:43:57;13.70;;;8.13;;
63157;SDS011;49381;49.338;8.794;2022-12-07T10:46:05;16.75;;;8.27;;
63157;SDS011;49381;49.338;8.794;2022-12-07T10:48:15;15.15;;;8.38;;
63157;SDS011;49381;49.338;8.794;2022-12-07T10:50:29;16.23;;;8.40;;
63157;SDS011;49381;49.338;8.794;2022-12-07T10:53:01;18.95;;;9.05;;
63157;SDS011;49381;49.338;8.794;2022-12-07T10:55:26;16.73;;;8.43;;
63157;SDS011;49381;49.338;8.794;2022-12-07T10:57:40;16.13;;;9.25;;
63157;SDS011;49381;49.338;8.794;2022-12-07T10:59:52;18.25;;;9.80;;
63157;SDS011;49381;49.338;8.794;2022-12-07T11:02:02;17.90;;;9.35;;
63157;SDS011;49381;49.338;8.794;2022-12-07T11:04:21;19.70;;;9.82;;
63157;SDS011;49381;49.338;8.794;2022-12-07T11:06:30;17.48;;;9.50;;
63157;SDS011;49381;49.338;8.794;2022-12-07T11:08:42;17.27;;;9.00;;
63157;SDS011;49381;49.338;8.794;2022-12-07T11:10:53;18.00;;;9.30;;
63157;SDS011;49381;49.338;8.794;2022-12-07T11:13:17;19.27;;;8.88;;
63157;SDS011;49381;49.338;8.794;2022-12-07T11:15:26;16.25;;;8.57;;
63157;SDS011;49381;49.338;8.794;2022-12-07T11:17:33;16.95;;;9.13;;
63157;SDS011;49381;49.338;8.794;2022-12-07T11:19:44;16.92;;;10.15;;
63157;SDS011;49381;49.338;8.794;2022-12-07T11:21:59;14.77;;;8.23;;
63157;SDS011;49381;49.338;8.794;2022-12-07T11:24:06;15.43;;;8.30;;
63157;SDS011;49381;49.338;8.794;2022-12-07T11:26:15;17.67;;;8.30;;
63157;SDS011;49381;49.338;8.794;2022-12-07T11:30:38;16.98;;;8.93;;
63157;SDS011;49381;49.338;8.794;2022-12-07T11:32:58;20.15;;;8.55;;
63157;SDS011;49381;49.338;8.794;2022-12-07T11:35:11;16.05;;;8.13;;
63157;SDS011;49381;49.338;8.794;2022-12-07T11:37:19;14.65;;;7.85;;
63157;SDS011;49381;49.338;8.794;2022-12-07T11:39:26;16.95;;;9.95;;
63157;SDS011;49381;49.338;8.794;2022-12-07T11:43:33;19.73;;;9.40;;
63157;SDS011;49381;49.338;8.794;2022-12-07T11:45:37;18.13;;;10.02;;
63157;SDS011;49381;49.338;8.794;2022-12-07T11:47:43;14.82;;;8.07;;
63157;SDS011;49381;49.338;8.794;2022-12-07T11:49:47;18.75;;;9.38;;
63157;SDS011;49381;49.338;8.794;2022-12-07T11:51:54;20.10;;;9.85;;
63157;SDS011;49381;49.338;8.794;2022-12-07T11:54:01;19.65;;;9.98;;
63157;SDS011;49381;49.338;8.794;2022-12-07T11:56:07;18.48;;;9.25;;
63157;SDS011;49381;49.338;8.794;2022-12-07T11:58:13;16.77;;;9.00;;
63157;SDS011;49381;49.338;8.794;2022-12-07T12:00:20;18.50;;;9.00;;
63157;SDS011;49381;49.338;8.794;2022-12-07T12:02:22;31.48;;;15.68;;
63157;SDS011;49381;49.338;8.794;2022-12-07T12:04:31;32.28;;;14.40;;
63157;SDS011;49381;49.338;8.794;2022-12-07T12:06:39;24.23;;;11.98;;
63157;SDS011;49381;49.338;8.794;2022-12-07T12:08:42;21.05;;;10.20;;
63157;SDS011;49381;49.338;8.794;2022-12-07T12:10:49;16.80;;;9.60;;
63157;SDS011;49381;49.338;8.794;2022-12-07T12:13:01;17.75;;;8.98;;
63157;SDS011;49381;49.338;8.794;2022-12-07T12:15:23;14.15;;;8.43;;